Houn Maru — JG5489 — position and weather

sailwx.info

Track history (hours):
 
Tides and Currents Weather Stations Pressure Air Temp Water Temp Dewpoint Dewpoint Depression Visibility Wind Speed Wind Dir Waves Ship Positions

Houn Maru

Last reported at 2018-Apr-20 10:25 UTC. Time now 2018-Apr-21 02:19 UTC.
Position N 34°27' E 134°03'.

Length 91 m; draft 6 m.

Type: Tanker. MMSI: 431101172.

Date/timePositionNaut miles runAvg speedWind from/ knotsBaromVisibWave heightAir tempDewpointWater temp
2018-Apr-20 10:25N 34°27' E 134°03'911.7
2018-Apr-20 09:39N 34°24' E 134°14'311.6
2018-Apr-20 09:22N 34°25' E 134°18'411.8
2018-Apr-20 09:00N 34°26' E 134°23'612.0
2018-Apr-20 08:30N 34°28' E 134°29'611.7
2018-Apr-20 08:00N 34°30' E 134°36'611.5
2018-Apr-20 07:30N 34°32' E 134°43'611.2
2018-Apr-20 07:00N 34°34' E 134°49'510.1
2018-Apr-20 06:30N 34°36' E 134°54'510.1
2018-Apr-20 06:00N 34°37' E 135°00'5 9.4
2018-Apr-20 05:30N 34°35' E 135°05'611.7
2018-Apr-20 05:01N 34°29' E 135°07'612.1
2018-Apr-20 04:30N 34°24' E 135°11'3 5.0
2018-Apr-20 03:59N 34°25' E 135°14'0 0.0
2018-Apr-20 03:29N 34°25' E 135°14'0 0.0
2018-Apr-20 02:59N 34°25' E 135°14'0 0.0
2018-Apr-20 02:26N 34°25' E 135°14'0 0.0
2018-Apr-20 01:56N 34°25' E 135°14'0 0.0
2018-Apr-20 01:29N 34°25' E 135°14'0 0.0
2018-Apr-20 00:59N 34°25' E 135°14'0 0.0
2018-Apr-20 00:29N 34°25' E 135°14'0 0.2
2018-Apr-20 00:01N 34°25' E 135°14'3 5.6
2018-Apr-19 23:30N 34°25' E 135°11'2 3.3
2018-Apr-19 23:00N 34°24' E 135°09'0 0.0
2018-Apr-19 22:30N 34°24' E 135°09'0 0.0
2018-Apr-19 22:00N 34°24' E 135°09'0 0.0
2018-Apr-19 21:30N 34°24' E 135°09'0 0.0
2018-Apr-19 21:00N 34°24' E 135°09'0 0.0
2018-Apr-19 20:30N 34°24' E 135°09'0 0.0
2018-Apr-19 20:00N 34°24' E 135°09'3 5.2
2018-Apr-19 19:30N 34°26' E 135°07'611.6
2018-Apr-19 19:00N 34°32' E 135°05'612.5
2018-Apr-19 18:31N 34°37' E 135°01'612.8
2018-Apr-19 18:00N 34°35' E 134°53'611.4
2018-Apr-19 17:30N 34°33' E 134°47'611.1
2018-Apr-19 17:00N 34°31' E 134°41'611.6
2018-Apr-19 16:30N 34°28' E 134°34'611.7
2018-Apr-19 16:00N 34°26' E 134°28'611.6
2018-Apr-19 15:30N 34°24' E 134°21'611.3
2018-Apr-19 15:00N 34°24' E 134°14'510.4
2018-Apr-19 14:30N 34°26' E 134°08'5 9.6
2018-Apr-19 13:59N 34°26' E 134°02'3 0.1
2018-Apr-18 12:27N 34°26' E 133°59'1314.0
2018-Apr-18 11:33N 34°24' E 134°14'013.3
2018-Apr-18 11:30N 34°24' E 134°15'713.1
2018-Apr-18 11:00N 34°26' E 134°23'612.7
2018-Apr-18 10:30N 34°28' E 134°30'612.8
2018-Apr-18 10:00N 34°30' E 134°37'612.7
2018-Apr-18 09:30N 34°33' E 134°44'612.1
2018-Apr-18 09:00N 34°35' E 134°51'611.6
2018-Apr-18 08:30N 34°37' E 134°58'4 8.6
2018-Apr-18 08:00N 34°36' E 135°03'4 7.8
2018-Apr-18 07:30N 34°33' E 135°05'611.2
2018-Apr-18 07:00N 34°28' E 135°08'611.5
2018-Apr-18 06:30N 34°23' E 135°12'2 3.6
2018-Apr-18 05:55N 34°25' E 135°14'0 0.0
2018-Apr-18 05:28N 34°25' E 135°14'0 0.0
2018-Apr-18 04:55N 34°25' E 135°14'0 0.0
2018-Apr-18 04:28N 34°25' E 135°14'0 0.0
2018-Apr-18 03:58N 34°25' E 135°14'0 0.0
2018-Apr-18 03:28N 34°25' E 135°14'0 0.0
2018-Apr-18 02:58N 34°25' E 135°14'0 0.0
2018-Apr-18 02:28N 34°25' E 135°14'0 0.0
2018-Apr-18 01:58N 34°25' E 135°14'0 0.9
2018-Apr-18 01:30N 34°25' E 135°14'3 6.9
2018-Apr-18 01:01N 34°25' E 135°10'510.8
2018-Apr-18 00:30N 34°28' E 135°15'510.1
2018-Apr-18 00:00N 34°31' E 135°21'0 0.4
2018-Apr-17 23:30N 34°31' E 135°21'0 0.0
2018-Apr-17 23:00N 34°31' E 135°21'0 0.1
2018-Apr-17 22:30N 34°31' E 135°21'0 0.0
2018-Apr-17 22:00N 34°31' E 135°21'0 0.0
2018-Apr-17 21:30N 34°31' E 135°21'0 0.0
2018-Apr-17 21:00N 34°31' E 135°21'0 0.0
2018-Apr-17 20:30N 34°31' E 135°21'0 0.1
2018-Apr-17 20:00N 34°31' E 135°21'0 0.0
2018-Apr-17 19:30N 34°31' E 135°21'0 0.1
2018-Apr-17 19:00N 34°31' E 135°21'0 0.0
2018-Apr-17 18:30N 34°31' E 135°21'0 0.0
2018-Apr-17 18:00N 34°31' E 135°21'0 0.0
2018-Apr-17 17:30N 34°31' E 135°21'0 0.0
2018-Apr-17 17:00N 34°31' E 135°21'0 0.1
2018-Apr-17 16:30N 34°31' E 135°21'0 0.0
2018-Apr-17 16:00N 34°31' E 135°21'0 0.0
2018-Apr-17 15:30N 34°31' E 135°21'0 0.0
2018-Apr-17 15:00N 34°31' E 135°21'0 0.0
2018-Apr-17 14:30N 34°31' E 135°21'0 0.0
2018-Apr-17 14:00N 34°31' E 135°21'0 0.0
2018-Apr-17 13:30N 34°31' E 135°21'0 0.0
2018-Apr-17 13:00N 34°31' E 135°21'0 0.0
2018-Apr-17 12:30N 34°31' E 135°21'0 0.1
2018-Apr-17 12:00N 34°31' E 135°21'0 0.0
2018-Apr-17 11:30N 34°31' E 135°21'0 0.1
2018-Apr-17 11:00N 34°31' E 135°21'0 0.0
2018-Apr-17 10:30N 34°31' E 135°21'0 0.0
2018-Apr-17 10:00N 34°31' E 135°21'0 0.0
2018-Apr-17 09:27N 34°31' E 135°21'0 0.0
2018-Apr-17 09:00N 34°31' E 135°21'0 0.2
2018-Apr-17 08:30N 34°31' E 135°21'4 8.4
2018-Apr-17 08:00N 34°33' E 135°25'0 0.7
2018-Apr-17 07:28N 34°33' E 135°26'0 0.0
2018-Apr-17 06:58N 34°33' E 135°26'0 0.0
2018-Apr-17 06:28N 34°33' E 135°26'0 0.0
2018-Apr-17 05:58N 34°33' E 135°26'0 0.0
2018-Apr-17 05:28N 34°33' E 135°26'0 0.0
2018-Apr-17 04:58N 34°33' E 135°26'0 0.0
2018-Apr-17 04:28N 34°33' E 135°26'0 0.0
2018-Apr-17 03:58N 34°33' E 135°26'0 0.0
2018-Apr-17 03:28N 34°33' E 135°26'0 0.0
2018-Apr-17 02:58N 34°33' E 135°26'0 0.0
2018-Apr-17 02:28N 34°33' E 135°26'0 0.0
2018-Apr-17 01:58N 34°33' E 135°26'0 0.0
2018-Apr-17 01:25N 34°33' E 135°26'0 0.0
2018-Apr-17 00:58N 34°33' E 135°26'0 0.0
2018-Apr-17 00:28N 34°33' E 135°26'0 0.0
2018-Apr-16 23:58N 34°33' E 135°26'0 0.0
2018-Apr-16 23:28N 34°33' E 135°26'0 0.0
2018-Apr-16 22:58N 34°33' E 135°26'0 0.1
2018-Apr-16 22:30N 34°33' E 135°26'2 3.9
2018-Apr-16 22:00N 34°33' E 135°23'3 4.6
2018-Apr-16 21:25N 34°31' E 135°21'0 0.1
2018-Apr-16 20:58N 34°31' E 135°21'0 0.0
2018-Apr-16 20:28N 34°31' E 135°21'0 0.0
2018-Apr-16 19:58N 34°31' E 135°21'0 0.0
2018-Apr-16 19:28N 34°31' E 135°21'0 0.0
2018-Apr-16 18:58N 34°31' E 135°21'0 0.0
2018-Apr-16 18:28N 34°31' E 135°21'0 0.0
2018-Apr-16 17:58N 34°31' E 135°21'0 0.0
2018-Apr-16 17:28N 34°31' E 135°21'0 0.0
2018-Apr-16 16:58N 34°31' E 135°21'0 0.0
2018-Apr-16 16:28N 34°31' E 135°21'0 0.0
2018-Apr-16 15:58N 34°31' E 135°21'0 0.0
2018-Apr-16 15:28N 34°31' E 135°21'0 0.1
2018-Apr-16 14:58N 34°31' E 135°21'0 0.0
2018-Apr-16 14:28N 34°31' E 135°21'0 0.1
2018-Apr-16 13:58N 34°31' E 135°21'0 0.0
2018-Apr-16 13:28N 34°31' E 135°21'0 0.0
2018-Apr-16 12:58N 34°31' E 135°21'0 0.0
2018-Apr-16 12:28N 34°31' E 135°21'0 0.0
2018-Apr-16 11:58N 34°31' E 135°21'0 0.0
2018-Apr-16 11:28N 34°31' E 135°21'0 0.0
2018-Apr-16 10:58N 34°31' E 135°21'0 0.0
2018-Apr-16 10:28N 34°31' E 135°21'0 0.0
2018-Apr-16 09:58N 34°31' E 135°21'0 0.0
2018-Apr-16 09:28N 34°31' E 135°21'0 0.1
2018-Apr-16 08:58N 34°31' E 135°21'0 0.0
2018-Apr-16 08:28N 34°31' E 135°21'0 0.0
2018-Apr-16 07:58N 34°31' E 135°21'0 0.0
2018-Apr-16 07:28N 34°31' E 135°21'0 0.0
2018-Apr-16 06:58N 34°31' E 135°21'0 0.0
2018-Apr-16 06:28N 34°31' E 135°21'0 0.0
2018-Apr-16 05:58N 34°31' E 135°21'0 0.2
2018-Apr-16 05:30N 34°31' E 135°21'510.8
2018-Apr-16 05:00N 34°28' E 135°15'510.2
2018-Apr-16 04:31N 34°25' E 135°10'3 6.6
2018-Apr-16 04:01N 34°25' E 135°14'0 0.1
2018-Apr-16 03:29N 34°25' E 135°14'0 0.0
2018-Apr-16 02:58N 34°25' E 135°14'0 0.0
2018-Apr-16 02:28N 34°25' E 135°14'0 0.0
2018-Apr-16 01:58N 34°25' E 135°14'0 0.0
2018-Apr-16 01:25N 34°25' E 135°14'0 0.0
2018-Apr-16 00:58N 34°25' E 135°14'0 0.0
2018-Apr-16 00:28N 34°25' E 135°14'0 0.2
2018-Apr-16 00:00N 34°25' E 135°14'2 4.8
2018-Apr-15 23:30N 34°24' E 135°12'2 3.8
2018-Apr-15 22:58N 34°24' E 135°09'0 0.1
2018-Apr-15 22:28N 34°24' E 135°09'0 0.0
2018-Apr-15 21:58N 34°24' E 135°09'0 0.0
2018-Apr-15 21:28N 34°24' E 135°09'0 0.0
2018-Apr-15 20:58N 34°24' E 135°09'0 0.0
2018-Apr-15 20:28N 34°24' E 135°09'0 0.0
2018-Apr-15 19:58N 34°24' E 135°09'0 0.0
2018-Apr-15 19:28N 34°24' E 135°09'0 0.0
2018-Apr-15 18:58N 34°24' E 135°09'0 0.0
2018-Apr-15 18:28N 34°24' E 135°09'0 0.0
2018-Apr-15 17:58N 34°24' E 135°09'0 0.0
2018-Apr-15 17:28N 34°24' E 135°09'0 0.0
2018-Apr-15 16:58N 34°24' E 135°09'0 0.0
2018-Apr-15 16:28N 34°24' E 135°09'0 0.0
2018-Apr-15 15:58N 34°24' E 135°09'0 0.0
2018-Apr-15 15:28N 34°24' E 135°09'0 0.0
2018-Apr-15 14:58N 34°24' E 135°09'0 0.0
2018-Apr-15 14:28N 34°24' E 135°09'0 0.0
2018-Apr-15 13:58N 34°24' E 135°09'0 0.0
2018-Apr-15 13:28N 34°24' E 135°09'0 0.0
2018-Apr-15 12:58N 34°24' E 135°09'0 0.3
2018-Apr-15 12:30N 34°24' E 135°09'510.1
2018-Apr-15 12:00N 34°29' E 135°06'510.7
2018-Apr-15 11:30N 34°34' E 135°04'4 7.9
2018-Apr-15 11:00N 34°37' E 135°01'4 8.1
2018-Apr-15 10:30N 34°36' E 134°56'4 8.7
2018-Apr-15 10:00N 34°34' E 134°51'510.0
2018-Apr-15 09:30N 34°32' E 134°46'510.6
2018-Apr-15 09:00N 34°30' E 134°40'510.9
2018-Apr-15 08:30N 34°28' E 134°34'611.0
2018-Apr-15 08:00N 34°26' E 134°27'611.2
2018-Apr-15 07:30N 34°24' E 134°21'711.5
2018-Apr-15 06:56N 34°24' E 134°13'14 0.8
2018-Apr-14 14:28N 34°26' E 133°57'510.4
2018-Apr-14 13:58N 34°27' E 134°03'1211.5
2018-Apr-14 12:53N 34°24' E 134°18'512.2
2018-Apr-14 12:30N 34°26' E 134°23'612.2
2018-Apr-14 12:00N 34°28' E 134°30'612.5
2018-Apr-14 11:30N 34°30' E 134°37'713.2
2018-Apr-14 11:00N 34°33' E 134°45'714.7
2018-Apr-14 10:30N 34°35' E 134°53'714.4
2018-Apr-14 10:00N 34°37' E 135°01'713.3
2018-Apr-14 09:30N 34°32' E 135°07'612.6
2018-Apr-14 09:00N 34°26' E 135°10'4 7.6
2018-Apr-14 08:30N 34°25' E 135°14'0 0.6
2018-Apr-14 08:00N 34°25' E 135°14'0 0.0
2018-Apr-14 07:30N 34°25' E 135°14'0 0.0
2018-Apr-14 07:00N 34°25' E 135°14'0 0.0
2018-Apr-14 06:30N 34°25' E 135°14'0 0.0
2018-Apr-14 06:00N 34°25' E 135°14'0 0.0
2018-Apr-14 05:30N 34°25' E 135°14'0 0.0
2018-Apr-14 05:00N 34°25' E 135°14'0 0.1
2018-Apr-14 04:31N 34°25' E 135°14'2 3.7
2018-Apr-14 04:00N 34°24' E 135°13'3 6.6
2018-Apr-14 03:30N 34°25' E 135°09'1 1.7
2018-Apr-14 02:58N 34°24' E 135°09'0 0.0
2018-Apr-14 02:28N 34°24' E 135°09'0 0.0
2018-Apr-14 01:58N 34°24' E 135°09'0 0.0
2018-Apr-14 01:28N 34°24' E 135°09'0 0.0
2018-Apr-14 00:58N 34°24' E 135°09'0 0.0
2018-Apr-14 00:28N 34°24' E 135°09'0 0.1
2018-Apr-13 23:58N 34°24' E 135°09'0 0.0
2018-Apr-13 23:28N 34°24' E 135°09'0 0.0
2018-Apr-13 22:58N 34°24' E 135°09'0 0.0
2018-Apr-13 22:28N 34°24' E 135°09'0 0.0
2018-Apr-13 21:58N 34°24' E 135°09'0 0.0
2018-Apr-13 21:28N 34°24' E 135°09'0 0.0
2018-Apr-13 20:58N 34°24' E 135°09'0 0.1
2018-Apr-13 20:28N 34°24' E 135°09'0 0.0
2018-Apr-13 19:58N 34°24' E 135°09'0 0.0
2018-Apr-13 19:28N 34°24' E 135°09'0 0.0
2018-Apr-13 18:58N 34°24' E 135°09'0 0.0
2018-Apr-13 18:31N 34°24' E 135°09'0 0.0
2018-Apr-13 17:58N 34°24' E 135°09'0 0.0
2018-Apr-13 17:28N 34°24' E 135°09'0 0.0
2018-Apr-13 16:58N 34°24' E 135°09'0 0.0
2018-Apr-13 16:28N 34°24' E 135°09'0 0.0
2018-Apr-13 15:58N 34°24' E 135°09'0 0.0
2018-Apr-13 15:28N 34°24' E 135°09'0 0.0
2018-Apr-13 14:58N 34°24' E 135°09'1 2.1
2018-Apr-13 14:30N 34°25' E 135°08'611.5
2018-Apr-13 14:00N 34°30' E 135°06'611.7
2018-Apr-13 13:30N 34°36' E 135°03'1010.3
2018-Apr-13 12:30N 34°33' E 134°51'510.4
2018-Apr-13 12:00N 34°31' E 134°45'510.4
2018-Apr-13 11:30N 34°29' E 134°39'510.6
2018-Apr-13 11:00N 34°28' E 134°33'510.6
2018-Apr-13 10:30N 34°26' E 134°27'510.8
2018-Apr-13 10:00N 34°24' E 134°21'18 0.9
2018-Apr-12 12:23N 34°26' E 133°59'410.6
2018-Apr-12 12:00N 34°27' E 134°03'911.8
2018-Apr-12 11:15N 34°24' E 134°14'311.9
2018-Apr-12 11:00N 34°24' E 134°17'612.1
2018-Apr-12 10:30N 34°25' E 134°24'612.1
2018-Apr-12 10:01N 34°28' E 134°31'612.4
2018-Apr-12 09:30N 34°30' E 134°38'612.5
2018-Apr-12 09:00N 34°32' E 134°45'612.8
2018-Apr-12 08:30N 34°35' E 134°52'612.9
2018-Apr-12 08:00N 34°37' E 134°60'611.8
2018-Apr-12 07:30N 34°34' E 135°06'611.7
2018-Apr-12 07:00N 34°29' E 135°09'612.0
2018-Apr-12 06:30N 34°24' E 135°12'2 4.0
2018-Apr-12 05:58N 34°25' E 135°14'0 0.0
2018-Apr-12 05:28N 34°25' E 135°14'0 0.0
2018-Apr-12 04:58N 34°25' E 135°14'0 0.0
2018-Apr-12 04:28N 34°25' E 135°14'0 0.0
2018-Apr-12 03:58N 34°25' E 135°14'0 0.0
2018-Apr-12 03:28N 34°25' E 135°14'0 0.0
2018-Apr-12 02:58N 34°25' E 135°14'0 0.0
2018-Apr-12 02:28N 34°25' E 135°14'0 0.0
2018-Apr-12 01:58N 34°25' E 135°14'0 0.6
2018-Apr-12 01:30N 34°25' E 135°14'3 6.1
2018-Apr-12 01:00N 34°25' E 135°10'1 2.4
2018-Apr-12 00:30N 34°24' E 135°09'0 0.0
2018-Apr-12 00:00N 34°24' E 135°09'0 0.0
2018-Apr-11 23:30N 34°24' E 135°09'0 0.1
2018-Apr-11 23:00N 34°24' E 135°09'0 0.0
2018-Apr-11 22:30N 34°24' E 135°09'0 0.0
2018-Apr-11 22:00N 34°24' E 135°09'0 0.0
2018-Apr-11 21:30N 34°24' E 135°09'0 0.0
2018-Apr-11 21:00N 34°24' E 135°09'0 0.0
2018-Apr-11 20:30N 34°24' E 135°09'0 0.0
2018-Apr-11 20:00N 34°24' E 135°09'0 0.0
2018-Apr-11 19:30N 34°24' E 135°09'0 0.0
2018-Apr-11 19:00N 34°24' E 135°09'0 0.0
2018-Apr-11 18:30N 34°24' E 135°09'0 0.0
2018-Apr-11 18:00N 34°24' E 135°09'0 0.0
2018-Apr-11 17:30N 34°24' E 135°09'0 0.0
2018-Apr-11 17:00N 34°24' E 135°09'0 0.0
2018-Apr-11 16:30N 34°24' E 135°09'0 0.0
2018-Apr-11 16:00N 34°24' E 135°09'0 0.0
2018-Apr-11 15:30N 34°24' E 135°09'0 0.0
2018-Apr-11 15:00N 34°24' E 135°09'0 0.0
2018-Apr-11 14:30N 34°24' E 135°09'0 0.0
2018-Apr-11 14:00N 34°24' E 135°09'0 0.0
2018-Apr-11 13:30N 34°24' E 135°09'0 0.0
2018-Apr-11 13:00N 34°24' E 135°09'0 0.2
2018-Apr-11 12:30N 34°24' E 135°09'4 7.7
2018-Apr-11 12:00N 34°28' E 135°07'511.0
2018-Apr-11 11:30N 34°33' E 135°04'510.4
2018-Apr-11 11:00N 34°37' E 135°01'510.8
2018-Apr-11 10:30N 34°35' E 134°54'610.8
2018-Apr-11 09:59N 34°33' E 134°48'511.2
2018-Apr-11 09:30N 34°31' E 134°42'611.4
2018-Apr-11 09:00N 34°29' E 134°36'611.5
2018-Apr-11 08:30N 34°27' E 134°29'611.1
2018-Apr-11 07:56N 34°24' E 134°22'511.0
2018-Apr-11 07:28N 34°24' E 134°16'1910.4
2018-Apr-11 05:39N 34°25' E 133°53'  
Track history (hours):
 
Tides and Currents Weather Stations Pressure Air Temp Water Temp Dewpoint Dewpoint Depression Visibility Wind Speed Wind Dir Waves Ship Positions

Houn Maru

Last reported at 2018-Apr-20 10:25 UTC. Time now 2018-Apr-21 02:19 UTC.
Position N 34°27' E 134°03'.

Length 91 m; draft 6 m.

Type: Tanker. MMSI: 431101172.

Date/timePositionNaut miles runAvg speedWind from/ knotsBaromVisibWave heightAir tempDewpointWater temp
2018-Apr-20 10:25N 34°27' E 134°03'911.7
2018-Apr-20 09:39N 34°24' E 134°14'311.6
2018-Apr-20 09:22N 34°25' E 134°18'411.8
2018-Apr-20 09:00N 34°26' E 134°23'612.0
2018-Apr-20 08:30N 34°28' E 134°29'611.7
2018-Apr-20 08:00N 34°30' E 134°36'611.5
2018-Apr-20 07:30N 34°32' E 134°43'611.2
2018-Apr-20 07:00N 34°34' E 134°49'510.1
2018-Apr-20 06:30N 34°36' E 134°54'510.1
2018-Apr-20 06:00N 34°37' E 135°00'5 9.4
2018-Apr-20 05:30N 34°35' E 135°05'611.7
2018-Apr-20 05:01N 34°29' E 135°07'612.1
2018-Apr-20 04:30N 34°24' E 135°11'3 5.0
2018-Apr-20 03:59N 34°25' E 135°14'0 0.0
2018-Apr-20 03:29N 34°25' E 135°14'0 0.0
2018-Apr-20 02:59N 34°25' E 135°14'0 0.0
2018-Apr-20 02:26N 34°25' E 135°14'0 0.0
2018-Apr-20 01:56N 34°25' E 135°14'0 0.0
2018-Apr-20 01:29N 34°25' E 135°14'0 0.0
2018-Apr-20 00:59N 34°25' E 135°14'0 0.0
2018-Apr-20 00:29N 34°25' E 135°14'0 0.2
2018-Apr-20 00:01N 34°25' E 135°14'3 5.6
2018-Apr-19 23:30N 34°25' E 135°11'2 3.3
2018-Apr-19 23:00N 34°24' E 135°09'0 0.0
2018-Apr-19 22:30N 34°24' E 135°09'0 0.0
2018-Apr-19 22:00N 34°24' E 135°09'0 0.0
2018-Apr-19 21:30N 34°24' E 135°09'0 0.0
2018-Apr-19 21:00N 34°24' E 135°09'0 0.0
2018-Apr-19 20:30N 34°24' E 135°09'0 0.0
2018-Apr-19 20:00N 34°24' E 135°09'3 5.2
2018-Apr-19 19:30N 34°26' E 135°07'611.6
2018-Apr-19 19:00N 34°32' E 135°05'612.5
2018-Apr-19 18:31N 34°37' E 135°01'612.8
2018-Apr-19 18:00N 34°35' E 134°53'611.4
2018-Apr-19 17:30N 34°33' E 134°47'611.1
2018-Apr-19 17:00N 34°31' E 134°41'611.6
2018-Apr-19 16:30N 34°28' E 134°34'611.7
2018-Apr-19 16:00N 34°26' E 134°28'611.6
2018-Apr-19 15:30N 34°24' E 134°21'611.3
2018-Apr-19 15:00N 34°24' E 134°14'510.4
2018-Apr-19 14:30N 34°26' E 134°08'5 9.6
2018-Apr-19 13:59N 34°26' E 134°02'3 0.1
2018-Apr-18 12:27N 34°26' E 133°59'1314.0
2018-Apr-18 11:33N 34°24' E 134°14'013.3
2018-Apr-18 11:30N 34°24' E 134°15'713.1
2018-Apr-18 11:00N 34°26' E 134°23'612.7
2018-Apr-18 10:30N 34°28' E 134°30'612.8
2018-Apr-18 10:00N 34°30' E 134°37'612.7
2018-Apr-18 09:30N 34°33' E 134°44'612.1
2018-Apr-18 09:00N 34°35' E 134°51'611.6
2018-Apr-18 08:30N 34°37' E 134°58'4 8.6
2018-Apr-18 08:00N 34°36' E 135°03'4 7.8
2018-Apr-18 07:30N 34°33' E 135°05'611.2
2018-Apr-18 07:00N 34°28' E 135°08'611.5
2018-Apr-18 06:30N 34°23' E 135°12'2 3.6
2018-Apr-18 05:55N 34°25' E 135°14'0 0.0
2018-Apr-18 05:28N 34°25' E 135°14'0 0.0
2018-Apr-18 04:55N 34°25' E 135°14'0 0.0
2018-Apr-18 04:28N 34°25' E 135°14'0 0.0
2018-Apr-18 03:58N 34°25' E 135°14'0 0.0
2018-Apr-18 03:28N 34°25' E 135°14'0 0.0
2018-Apr-18 02:58N 34°25' E 135°14'0 0.0
2018-Apr-18 02:28N 34°25' E 135°14'0 0.0
2018-Apr-18 01:58N 34°25' E 135°14'0 0.9
2018-Apr-18 01:30N 34°25' E 135°14'3 6.9
2018-Apr-18 01:01N 34°25' E 135°10'510.8
2018-Apr-18 00:30N 34°28' E 135°15'510.1
2018-Apr-18 00:00N 34°31' E 135°21'0 0.4
2018-Apr-17 23:30N 34°31' E 135°21'0 0.0
2018-Apr-17 23:00N 34°31' E 135°21'0 0.1
2018-Apr-17 22:30N 34°31' E 135°21'0 0.0
2018-Apr-17 22:00N 34°31' E 135°21'0 0.0
2018-Apr-17 21:30N 34°31' E 135°21'0 0.0
2018-Apr-17 21:00N 34°31' E 135°21'0 0.0
2018-Apr-17 20:30N 34°31' E 135°21'0 0.1
2018-Apr-17 20:00N 34°31' E 135°21'0 0.0
2018-Apr-17 19:30N 34°31' E 135°21'0 0.1
2018-Apr-17 19:00N 34°31' E 135°21'0 0.0
2018-Apr-17 18:30N 34°31' E 135°21'0 0.0
2018-Apr-17 18:00N 34°31' E 135°21'0 0.0
2018-Apr-17 17:30N 34°31' E 135°21'0 0.0
2018-Apr-17 17:00N 34°31' E 135°21'0 0.1
2018-Apr-17 16:30N 34°31' E 135°21'0 0.0
2018-Apr-17 16:00N 34°31' E 135°21'0 0.0
2018-Apr-17 15:30N 34°31' E 135°21'0 0.0
2018-Apr-17 15:00N 34°31' E 135°21'0 0.0
2018-Apr-17 14:30N 34°31' E 135°21'0 0.0
2018-Apr-17 14:00N 34°31' E 135°21'0 0.0
2018-Apr-17 13:30N 34°31' E 135°21'0 0.0
2018-Apr-17 13:00N 34°31' E 135°21'0 0.0
2018-Apr-17 12:30N 34°31' E 135°21'0 0.1
2018-Apr-17 12:00N 34°31' E 135°21'0 0.0
2018-Apr-17 11:30N 34°31' E 135°21'0 0.1
2018-Apr-17 11:00N 34°31' E 135°21'0 0.0
2018-Apr-17 10:30N 34°31' E 135°21'0 0.0
2018-Apr-17 10:00N 34°31' E 135°21'0 0.0
2018-Apr-17 09:27N 34°31' E 135°21'0 0.0
2018-Apr-17 09:00N 34°31' E 135°21'0 0.2
2018-Apr-17 08:30N 34°31' E 135°21'4 8.4
2018-Apr-17 08:00N 34°33' E 135°25'0 0.7
2018-Apr-17 07:28N 34°33' E 135°26'0 0.0
2018-Apr-17 06:58N 34°33' E 135°26'0 0.0
2018-Apr-17 06:28N 34°33' E 135°26'0 0.0
2018-Apr-17 05:58N 34°33' E 135°26'0 0.0
2018-Apr-17 05:28N 34°33' E 135°26'0 0.0
2018-Apr-17 04:58N 34°33' E 135°26'0 0.0
2018-Apr-17 04:28N 34°33' E 135°26'0 0.0
2018-Apr-17 03:58N 34°33' E 135°26'0 0.0
2018-Apr-17 03:28N 34°33' E 135°26'0 0.0
2018-Apr-17 02:58N 34°33' E 135°26'0 0.0
2018-Apr-17 02:28N 34°33' E 135°26'0 0.0
2018-Apr-17 01:58N 34°33' E 135°26'0 0.0
2018-Apr-17 01:25N 34°33' E 135°26'0 0.0
2018-Apr-17 00:58N 34°33' E 135°26'0 0.0
2018-Apr-17 00:28N 34°33' E 135°26'0 0.0
2018-Apr-16 23:58N 34°33' E 135°26'0 0.0
2018-Apr-16 23:28N 34°33' E 135°26'0 0.0
2018-Apr-16 22:58N 34°33' E 135°26'0 0.1
2018-Apr-16 22:30N 34°33' E 135°26'2 3.9
2018-Apr-16 22:00N 34°33' E 135°23'3 4.6
2018-Apr-16 21:25N 34°31' E 135°21'0 0.1
2018-Apr-16 20:58N 34°31' E 135°21'0 0.0
2018-Apr-16 20:28N 34°31' E 135°21'0 0.0
2018-Apr-16 19:58N 34°31' E 135°21'0 0.0
2018-Apr-16 19:28N 34°31' E 135°21'0 0.0
2018-Apr-16 18:58N 34°31' E 135°21'0 0.0
2018-Apr-16 18:28N 34°31' E 135°21'0 0.0
2018-Apr-16 17:58N 34°31' E 135°21'0 0.0
2018-Apr-16 17:28N 34°31' E 135°21'0 0.0
2018-Apr-16 16:58N 34°31' E 135°21'0 0.0
2018-Apr-16 16:28N 34°31' E 135°21'0 0.0
2018-Apr-16 15:58N 34°31' E 135°21'0 0.0
2018-Apr-16 15:28N 34°31' E 135°21'0 0.1
2018-Apr-16 14:58N 34°31' E 135°21'0 0.0
2018-Apr-16 14:28N 34°31' E 135°21'0 0.1
2018-Apr-16 13:58N 34°31' E 135°21'0 0.0
2018-Apr-16 13:28N 34°31' E 135°21'0 0.0
2018-Apr-16 12:58N 34°31' E 135°21'0 0.0
2018-Apr-16 12:28N 34°31' E 135°21'0 0.0
2018-Apr-16 11:58N 34°31' E 135°21'0 0.0
2018-Apr-16 11:28N 34°31' E 135°21'0 0.0
2018-Apr-16 10:58N 34°31' E 135°21'0 0.0
2018-Apr-16 10:28N 34°31' E 135°21'0 0.0
2018-Apr-16 09:58N 34°31' E 135°21'0 0.0
2018-Apr-16 09:28N 34°31' E 135°21'0 0.1
2018-Apr-16 08:58N 34°31' E 135°21'0 0.0
2018-Apr-16 08:28N 34°31' E 135°21'0 0.0
2018-Apr-16 07:58N 34°31' E 135°21'0 0.0
2018-Apr-16 07:28N 34°31' E 135°21'0 0.0
2018-Apr-16 06:58N 34°31' E 135°21'0 0.0
2018-Apr-16 06:28N 34°31' E 135°21'0 0.0
2018-Apr-16 05:58N 34°31' E 135°21'0 0.2
2018-Apr-16 05:30N 34°31' E 135°21'510.8
2018-Apr-16 05:00N 34°28' E 135°15'510.2
2018-Apr-16 04:31N 34°25' E 135°10'3 6.6
2018-Apr-16 04:01N 34°25' E 135°14'0 0.1
2018-Apr-16 03:29N 34°25' E 135°14'0 0.0
2018-Apr-16 02:58N 34°25' E 135°14'0 0.0
2018-Apr-16 02:28N 34°25' E 135°14'0 0.0
2018-Apr-16 01:58N 34°25' E 135°14'0 0.0
2018-Apr-16 01:25N 34°25' E 135°14'0 0.0
2018-Apr-16 00:58N 34°25' E 135°14'0 0.0
2018-Apr-16 00:28N 34°25' E 135°14'0 0.2
2018-Apr-16 00:00N 34°25' E 135°14'2 4.8
2018-Apr-15 23:30N 34°24' E 135°12'2 3.8
2018-Apr-15 22:58N 34°24' E 135°09'0 0.1
2018-Apr-15 22:28N 34°24' E 135°09'0 0.0
2018-Apr-15 21:58N 34°24' E 135°09'0 0.0
2018-Apr-15 21:28N 34°24' E 135°09'0 0.0
2018-Apr-15 20:58N 34°24' E 135°09'0 0.0
2018-Apr-15 20:28N 34°24' E 135°09'0 0.0
2018-Apr-15 19:58N 34°24' E 135°09'0 0.0
2018-Apr-15 19:28N 34°24' E 135°09'0 0.0
2018-Apr-15 18:58N 34°24' E 135°09'0 0.0
2018-Apr-15 18:28N 34°24' E 135°09'0 0.0
2018-Apr-15 17:58N 34°24' E 135°09'0 0.0
2018-Apr-15 17:28N 34°24' E 135°09'0 0.0
2018-Apr-15 16:58N 34°24' E 135°09'0 0.0
2018-Apr-15 16:28N 34°24' E 135°09'0 0.0
2018-Apr-15 15:58N 34°24' E 135°09'0 0.0
2018-Apr-15 15:28N 34°24' E 135°09'0 0.0
2018-Apr-15 14:58N 34°24' E 135°09'0 0.0
2018-Apr-15 14:28N 34°24' E 135°09'0 0.0
2018-Apr-15 13:58N 34°24' E 135°09'0 0.0
2018-Apr-15 13:28N 34°24' E 135°09'0 0.0
2018-Apr-15 12:58N 34°24' E 135°09'0 0.3
2018-Apr-15 12:30N 34°24' E 135°09'510.1
2018-Apr-15 12:00N 34°29' E 135°06'510.7
2018-Apr-15 11:30N 34°34' E 135°04'4 7.9
2018-Apr-15 11:00N 34°37' E 135°01'4 8.1
2018-Apr-15 10:30N 34°36' E 134°56'4 8.7
2018-Apr-15 10:00N 34°34' E 134°51'510.0
2018-Apr-15 09:30N 34°32' E 134°46'510.6
2018-Apr-15 09:00N 34°30' E 134°40'510.9
2018-Apr-15 08:30N 34°28' E 134°34'611.0
2018-Apr-15 08:00N 34°26' E 134°27'611.2
2018-Apr-15 07:30N 34°24' E 134°21'711.5
2018-Apr-15 06:56N 34°24' E 134°13'14 0.8
2018-Apr-14 14:28N 34°26' E 133°57'510.4
2018-Apr-14 13:58N 34°27' E 134°03'1211.5
2018-Apr-14 12:53N 34°24' E 134°18'512.2
2018-Apr-14 12:30N 34°26' E 134°23'612.2
2018-Apr-14 12:00N 34°28' E 134°30'612.5
2018-Apr-14 11:30N 34°30' E 134°37'713.2
2018-Apr-14 11:00N 34°33' E 134°45'714.7
2018-Apr-14 10:30N 34°35' E 134°53'714.4
2018-Apr-14 10:00N 34°37' E 135°01'713.3
2018-Apr-14 09:30N 34°32' E 135°07'612.6
2018-Apr-14 09:00N 34°26' E 135°10'4 7.6
2018-Apr-14 08:30N 34°25' E 135°14'0 0.6
2018-Apr-14 08:00N 34°25' E 135°14'0 0.0
2018-Apr-14 07:30N 34°25' E 135°14'0 0.0
2018-Apr-14 07:00N 34°25' E 135°14'0 0.0
2018-Apr-14 06:30N 34°25' E 135°14'0 0.0
2018-Apr-14 06:00N 34°25' E 135°14'0 0.0
2018-Apr-14 05:30N 34°25' E 135°14'0 0.0
2018-Apr-14 05:00N 34°25' E 135°14'0 0.1
2018-Apr-14 04:31N 34°25' E 135°14'2 3.7
2018-Apr-14 04:00N 34°24' E 135°13'3 6.6
2018-Apr-14 03:30N 34°25' E 135°09'1 1.7
2018-Apr-14 02:58N 34°24' E 135°09'0 0.0
2018-Apr-14 02:28N 34°24' E 135°09'0 0.0
2018-Apr-14 01:58N 34°24' E 135°09'0 0.0
2018-Apr-14 01:28N 34°24' E 135°09'0 0.0
2018-Apr-14 00:58N 34°24' E 135°09'0 0.0
2018-Apr-14 00:28N 34°24' E 135°09'0 0.1
2018-Apr-13 23:58N 34°24' E 135°09'0 0.0
2018-Apr-13 23:28N 34°24' E 135°09'0 0.0
2018-Apr-13 22:58N 34°24' E 135°09'0 0.0
2018-Apr-13 22:28N 34°24' E 135°09'0 0.0
2018-Apr-13 21:58N 34°24' E 135°09'0 0.0
2018-Apr-13 21:28N 34°24' E 135°09'0 0.0
2018-Apr-13 20:58N 34°24' E 135°09'0 0.1
2018-Apr-13 20:28N 34°24' E 135°09'0 0.0
2018-Apr-13 19:58N 34°24' E 135°09'0 0.0
2018-Apr-13 19:28N 34°24' E 135°09'0 0.0
2018-Apr-13 18:58N 34°24' E 135°09'0 0.0
2018-Apr-13 18:31N 34°24' E 135°09'0 0.0
2018-Apr-13 17:58N 34°24' E 135°09'0 0.0
2018-Apr-13 17:28N 34°24' E 135°09'0 0.0
2018-Apr-13 16:58N 34°24' E 135°09'0 0.0
2018-Apr-13 16:28N 34°24' E 135°09'0 0.0
2018-Apr-13 15:58N 34°24' E 135°09'0 0.0
2018-Apr-13 15:28N 34°24' E 135°09'0 0.0
2018-Apr-13 14:58N 34°24' E 135°09'1 2.1
2018-Apr-13 14:30N 34°25' E 135°08'611.5
2018-Apr-13 14:00N 34°30' E 135°06'611.7
2018-Apr-13 13:30N 34°36' E 135°03'1010.3
2018-Apr-13 12:30N 34°33' E 134°51'510.4
2018-Apr-13 12:00N 34°31' E 134°45'510.4
2018-Apr-13 11:30N 34°29' E 134°39'510.6
2018-Apr-13 11:00N 34°28' E 134°33'510.6
2018-Apr-13 10:30N 34°26' E 134°27'510.8
2018-Apr-13 10:00N 34°24' E 134°21'18 0.9
2018-Apr-12 12:23N 34°26' E 133°59'410.6
2018-Apr-12 12:00N 34°27' E 134°03'911.8
2018-Apr-12 11:15N 34°24' E 134°14'311.9
2018-Apr-12 11:00N 34°24' E 134°17'612.1
2018-Apr-12 10:30N 34°25' E 134°24'612.1
2018-Apr-12 10:01N 34°28' E 134°31'612.4
2018-Apr-12 09:30N 34°30' E 134°38'612.5
2018-Apr-12 09:00N 34°32' E 134°45'612.8
2018-Apr-12 08:30N 34°35' E 134°52'612.9
2018-Apr-12 08:00N 34°37' E 134°60'611.8
2018-Apr-12 07:30N 34°34' E 135°06'611.7
2018-Apr-12 07:00N 34°29' E 135°09'612.0
2018-Apr-12 06:30N 34°24' E 135°12'2 4.0
2018-Apr-12 05:58N 34°25' E 135°14'0 0.0
2018-Apr-12 05:28N 34°25' E 135°14'0 0.0
2018-Apr-12 04:58N 34°25' E 135°14'0 0.0
2018-Apr-12 04:28N 34°25' E 135°14'0 0.0
2018-Apr-12 03:58N 34°25' E 135°14'0 0.0
2018-Apr-12 03:28N 34°25' E 135°14'0 0.0
2018-Apr-12 02:58N 34°25' E 135°14'0 0.0
2018-Apr-12 02:28N 34°25' E 135°14'0 0.0
2018-Apr-12 01:58N 34°25' E 135°14'0 0.6
2018-Apr-12 01:30N 34°25' E 135°14'3 6.1
2018-Apr-12 01:00N 34°25' E 135°10'1 2.4
2018-Apr-12 00:30N 34°24' E 135°09'0 0.0
2018-Apr-12 00:00N 34°24' E 135°09'0 0.0
2018-Apr-11 23:30N 34°24' E 135°09'0 0.1
2018-Apr-11 23:00N 34°24' E 135°09'0 0.0
2018-Apr-11 22:30N 34°24' E 135°09'0 0.0
2018-Apr-11 22:00N 34°24' E 135°09'0 0.0
2018-Apr-11 21:30N 34°24' E 135°09'0 0.0
2018-Apr-11 21:00N 34°24' E 135°09'0 0.0
2018-Apr-11 20:30N 34°24' E 135°09'0 0.0
2018-Apr-11 20:00N 34°24' E 135°09'0 0.0
2018-Apr-11 19:30N 34°24' E 135°09'0 0.0
2018-Apr-11 19:00N 34°24' E 135°09'0 0.0
2018-Apr-11 18:30N 34°24' E 135°09'0 0.0
2018-Apr-11 18:00N 34°24' E 135°09'0 0.0
2018-Apr-11 17:30N 34°24' E 135°09'0 0.0
2018-Apr-11 17:00N 34°24' E 135°09'0 0.0
2018-Apr-11 16:30N 34°24' E 135°09'0 0.0
2018-Apr-11 16:00N 34°24' E 135°09'0 0.0
2018-Apr-11 15:30N 34°24' E 135°09'0 0.0
2018-Apr-11 15:00N 34°24' E 135°09'0 0.0
2018-Apr-11 14:30N 34°24' E 135°09'0 0.0
2018-Apr-11 14:00N 34°24' E 135°09'0 0.0
2018-Apr-11 13:30N 34°24' E 135°09'0 0.0
2018-Apr-11 13:00N 34°24' E 135°09'0 0.2
2018-Apr-11 12:30N 34°24' E 135°09'4 7.7
2018-Apr-11 12:00N 34°28' E 135°07'511.0
2018-Apr-11 11:30N 34°33' E 135°04'510.4
2018-Apr-11 11:00N 34°37' E 135°01'510.8
2018-Apr-11 10:30N 34°35' E 134°54'610.8
2018-Apr-11 09:59N 34°33' E 134°48'511.2
2018-Apr-11 09:30N 34°31' E 134°42'611.4
2018-Apr-11 09:00N 34°29' E 134°36'611.5
2018-Apr-11 08:30N 34°27' E 134°29'611.1
2018-Apr-11 07:56N 34°24' E 134°22'511.0
2018-Apr-11 07:28N 34°24' E 134°16'1910.4
2018-Apr-11 05:39N 34°25' E 133°53'  

Dump ship's entire track history